Time;durP1;ratioP1;P1;durP2;ratioP2;P2;SDS_P1;SDS_P2;PMS_P1;PMS_P2;Temp;Humidity;BMP_temperature;BMP_pressure;BME280_temperature;BME280_humidity;BME280_pressure;Samples;Min_cycle;Max_cycle;Signal;HPM_P1;HPM_P2
2024/02/02 00:00:07;;;;;;;23.17;4.40;;;;;;;;;;5078005;28;20108;-73
2024/02/02 00:02:39;;;;;;;21.25;4.53;;;;;;;;;;5096190;28;20590;-76
2024/02/02 00:05:07;;;;;;;20.42;4.65;;;;;;;;;;5085934;28;20052;-73
2024/02/02 00:07:33;;;;;;;19.73;4.32;;;;;;;;;;5072679;28;20965;-73
2024/02/02 00:10:00;;;;;;;23.73;4.55;;;;;;;;;;5085060;28;20876;-73
2024/02/02 00:12:27;;;;;;;22.08;4.25;;;;;;;;;;5073735;28;20044;-73
2024/02/02 00:14:53;;;;;;;16.63;4.13;;;;;;;;;;5079705;28;20146;-72
2024/02/02 00:17:20;;;;;;;20.52;4.63;;;;;;;;;;5087120;28;20043;-72
2024/02/02 00:19:46;;;;;;;21.55;3.95;;;;;;;;;;5091564;28;20458;-72
2024/02/02 00:22:13;;;;;;;17.23;5.15;;;;;;;;;;5078913;28;20060;-71
2024/02/02 00:24:39;;;;;;;16.98;5.88;;;;;;;;;;5076267;28;20522;-71
2024/02/02 00:27:06;;;;;;;21.67;5.18;;;;;;;;;;5081997;28;20506;-72
2024/02/02 00:29:32;;;;;;;20.50;5.05;;;;;;;;;;5061179;28;20519;-72
2024/02/02 00:31:59;;;;;;;17.50;5.22;;;;;;;;;;5085505;28;20052;-71
2024/02/02 00:34:25;;;;;;;16.50;4.38;;;;;;;;;;5083889;28;20048;-71
2024/02/02 00:36:52;;;;;;;14.43;4.85;;;;;;;;;;5080469;28;20048;-71
2024/02/02 00:39:18;;;;;;;21.92;5.65;;;;;;;;;;5076624;28;20505;-71
2024/02/02 00:41:45;;;;;;;20.52;5.22;;;;;;;;;;5071716;28;20110;-71
2024/02/02 00:44:11;;;;;;;19.63;5.35;;;;;;;;;;5083819;28;20745;-71
2024/02/02 00:46:38;;;;;;;25.67;6.32;;;;;;;;;;5073118;28;20088;-71
2024/02/02 00:49:04;;;;;;;22.65;5.97;;;;;;;;;;5079693;28;20131;-72
2024/02/02 00:51:31;;;;;;;16.83;5.57;;;;;;;;;;5070885;28;20048;-71
2024/02/02 00:53:57;;;;;;;21.75;5.28;;;;;;;;;;5068065;28;20051;-71
2024/02/02 00:56:24;;;;;;;17.02;5.38;;;;;;;;;;5080980;28;20059;-71
2024/02/02 00:58:51;;;;;;;23.88;5.78;;;;;;;;;;5077909;28;20376;-71
2024/02/02 01:01:17;;;;;;;31.15;5.75;;;;;;;;;;5080082;28;20496;-71
2024/02/02 01:03:44;;;;;;;19.73;5.45;;;;;;;;;;5080921;28;20050;-71
2024/02/02 01:06:11;;;;;;;22.77;5.57;;;;;;;;;;5054545;28;20181;-71
2024/02/02 01:08:37;;;;;;;21.73;5.55;;;;;;;;;;5078044;28;20503;-72
2024/02/02 01:11:04;;;;;;;17.73;5.53;;;;;;;;;;5078890;28;20072;-72
2024/02/02 01:13:30;;;;;;;25.75;6.60;;;;;;;;;;5083770;28;20094;-72
2024/02/02 01:15:56;;;;;;;18.30;5.60;;;;;;;;;;5077270;28;20574;-72
2024/02/02 01:18:23;;;;;;;17.25;5.25;;;;;;;;;;5075884;28;20071;-72
2024/02/02 01:20:49;;;;;;;23.27;6.30;;;;;;;;;;5092610;28;20131;-72
2024/02/02 01:23:16;;;;;;;25.42;5.88;;;;;;;;;;5089368;28;20202;-72
2024/02/02 01:25:42;;;;;;;23.40;5.38;;;;;;;;;;5089560;28;20080;-71
2024/02/02 01:28:10;;;;;;;18.33;5.47;;;;;;;;;;5071638;28;20672;-71
2024/02/02 01:30:36;;;;;;;21.52;5.53;;;;;;;;;;5085124;28;20746;-72
2024/02/02 01:33:03;;;;;;;17.65;5.00;;;;;;;;;;5080151;28;20059;-72
2024/02/02 01:35:29;;;;;;;22.15;5.25;;;;;;;;;;5078050;28;20052;-72
2024/02/02 01:37:56;;;;;;;21.00;4.60;;;;;;;;;;5067126;28;20048;-72
2024/02/02 01:40:22;;;;;;;19.98;5.25;;;;;;;;;;5069629;28;20079;-72
2024/02/02 01:42:48;;;;;;;17.27;4.90;;;;;;;;;;5062739;28;20098;-72
2024/02/02 01:45:15;;;;;;;24.33;5.85;;;;;;;;;;5069008;28;20105;-71
2024/02/02 01:47:43;;;;;;;20.02;4.82;;;;;;;;;;5064222;28;20417;-72
2024/02/02 01:50:10;;;;;;;21.70;5.13;;;;;;;;;;5061792;28;20432;-72
2024/02/02 01:52:37;;;;;;;23.95;5.60;;;;;;;;;;5066564;28;20526;-72
2024/02/02 01:55:04;;;;;;;23.75;4.80;;;;;;;;;;5094905;28;20059;-72
2024/02/02 01:57:30;;;;;;;24.60;5.50;;;;;;;;;;5082262;28;20163;-72
2024/02/02 01:59:57;;;;;;;28.65;5.90;;;;;;;;;;5088612;28;20044;-71
2024/02/02 02:02:23;;;;;;;20.27;5.50;;;;;;;;;;5079721;28;20044;-72
2024/02/02 02:04:50;;;;;;;25.02;4.95;;;;;;;;;;5082892;28;20086;-72
2024/02/02 02:07:16;;;;;;;16.58;4.60;;;;;;;;;;5085840;28;20052;-72
2024/02/02 02:09:43;;;;;;;24.58;5.22;;;;;;;;;;5079812;28;20063;-72
2024/02/02 02:12:09;;;;;;;23.85;5.60;;;;;;;;;;5087901;28;20048;-73
2024/02/02 02:14:36;;;;;;;18.73;5.53;;;;;;;;;;5078836;28;20668;-72
2024/02/02 02:17:02;;;;;;;24.88;5.43;;;;;;;;;;5077853;28;20047;-72
2024/02/02 02:19:30;;;;;;;20.85;5.55;;;;;;;;;;5091301;28;20127;-72
2024/02/02 02:21:57;;;;;;;21.17;6.07;;;;;;;;;;5082105;28;20131;-72
2024/02/02 02:24:23;;;;;;;21.10;4.90;;;;;;;;;;5066900;28;20044;-72
2024/02/02 02:26:50;;;;;;;21.15;4.72;;;;;;;;;;5081882;28;20098;-71
2024/02/02 02:29:16;;;;;;;28.45;5.47;;;;;;;;;;5101017;28;20050;-72
2024/02/02 02:31:51;;;;;;;16.67;5.25;;;;;;;;;;5077512;28;20188;-72
2024/02/02 02:34:17;;;;;;;20.75;6.00;;;;;;;;;;5065259;28;20137;-72
2024/02/02 02:36:44;;;;;;;23.42;5.57;;;;;;;;;;5082929;28;20052;-72
2024/02/02 02:39:11;;;;;;;14.32;4.93;;;;;;;;;;5081374;28;20113;-72
2024/02/02 02:41:38;;;;;;;27.13;6.25;;;;;;;;;;5081265;28;20075;-72
2024/02/02 02:44:04;;;;;;;21.10;6.10;;;;;;;;;;5072087;28;20050;-72
2024/02/02 02:46:31;;;;;;;21.50;6.43;;;;;;;;;;5083525;28;20587;-72
2024/02/02 02:48:57;;;;;;;27.70;5.90;;;;;;;;;;5055710;28;20672;-72
2024/02/02 02:51:24;;;;;;;23.20;5.82;;;;;;;;;;5086915;28;20098;-72
2024/02/02 02:53:50;;;;;;;25.08;6.60;;;;;;;;;;5078059;28;20044;-72
2024/02/02 02:56:17;;;;;;;25.50;6.70;;;;;;;;;;5064977;28;20051;-72
2024/02/02 02:58:43;;;;;;;24.02;6.32;;;;;;;;;;5090245;28;20099;-72
2024/02/02 03:01:10;;;;;;;18.00;6.57;;;;;;;;;;5080612;28;20557;-72
2024/02/02 03:03:36;;;;;;;20.40;7.18;;;;;;;;;;5087621;28;20048;-72
2024/02/02 03:06:03;;;;;;;30.63;7.95;;;;;;;;;;5068020;28;20048;-73
2024/02/02 03:08:30;;;;;;;26.02;7.03;;;;;;;;;;5078004;28;20194;-73
2024/02/02 03:10:58;;;;;;;20.50;6.78;;;;;;;;;;5082900;28;20044;-72
2024/02/02 03:13:24;;;;;;;27.20;8.32;;;;;;;;;;5076709;28;20047;-72
2024/02/02 03:15:51;;;;;;;24.58;7.82;;;;;;;;;;5097430;28;20060;-72
2024/02/02 03:18:17;;;;;;;29.58;7.97;;;;;;;;;;5091594;28;20059;-72
2024/02/02 03:20:44;;;;;;;26.05;8.63;;;;;;;;;;5073915;28;20071;-71
2024/02/02 03:23:10;;;;;;;22.45;8.70;;;;;;;;;;5050869;28;20052;-72
2024/02/02 03:25:37;;;;;;;29.45;8.48;;;;;;;;;;5062195;28;20534;-72
2024/02/02 03:28:03;;;;;;;26.42;9.35;;;;;;;;;;5093591;28;20134;-71
2024/02/02 03:30:30;;;;;;;26.10;8.43;;;;;;;;;;5065067;28;20313;-71
2024/02/02 03:32:56;;;;;;;30.40;8.57;;;;;;;;;;5065008;28;20040;-71
2024/02/02 03:35:24;;;;;;;26.05;8.88;;;;;;;;;;5076304;28;20095;-71
2024/02/02 03:37:50;;;;;;;20.90;8.07;;;;;;;;;;5075797;28;20138;-71
2024/02/02 03:40:17;;;;;;;37.83;9.80;;;;;;;;;;5086591;28;20053;-71
2024/02/02 03:42:43;;;;;;;31.30;9.27;;;;;;;;;;5079730;28;20094;-73
2024/02/02 03:45:11;;;;;;;25.67;8.52;;;;;;;;;;5086995;28;20051;-71
2024/02/02 03:47:37;;;;;;;27.15;8.75;;;;;;;;;;5082034;28;20059;-71
2024/02/02 03:50:04;;;;;;;21.80;8.50;;;;;;;;;;5066650;28;20079;-72
2024/02/02 03:52:31;;;;;;;28.73;8.70;;;;;;;;;;5061447;28;20455;-71
2024/02/02 03:54:57;;;;;;;19.00;7.85;;;;;;;;;;5060937;28;20056;-71
2024/02/02 03:57:24;;;;;;;25.17;8.10;;;;;;;;;;5072696;28;20155;-74
2024/02/02 03:59:50;;;;;;;26.67;9.27;;;;;;;;;;5057008;28;20052;-72
2024/02/02 04:02:17;;;;;;;27.15;8.85;;;;;;;;;;5062873;28;20040;-71
2024/02/02 04:04:44;;;;;;;21.92;7.80;;;;;;;;;;5077318;28;20044;-70
2024/02/02 04:07:10;;;;;;;21.75;8.30;;;;;;;;;;5077430;28;20070;-71
2024/02/02 04:09:38;;;;;;;22.63;8.75;;;;;;;;;;5080735;28;20092;-71
2024/02/02 04:12:05;;;;;;;26.92;8.38;;;;;;;;;;5066916;28;20048;-71
2024/02/02 04:14:31;;;;;;;20.02;8.90;;;;;;;;;;5085589;28;20048;-72
2024/02/02 04:16:57;;;;;;;21.63;8.60;;;;;;;;;;5080858;28;20565;-71
2024/02/02 04:19:24;;;;;;;25.55;8.93;;;;;;;;;;5088877;28;20140;-72
2024/02/02 04:21:50;;;;;;;28.77;9.32;;;;;;;;;;5079755;28;20078;-72
2024/02/02 04:24:17;;;;;;;19.05;7.75;;;;;;;;;;5073510;28;20070;-71
2024/02/02 04:26:43;;;;;;;25.10;8.23;;;;;;;;;;5079564;28;20048;-71
2024/02/02 04:29:10;;;;;;;19.98;7.60;;;;;;;;;;5089317;28;20047;-72
2024/02/02 04:31:37;;;;;;;25.60;8.30;;;;;;;;;;5062871;28;20056;-71
2024/02/02 04:34:03;;;;;;;26.10;8.85;;;;;;;;;;5075914;28;20992;-71
2024/02/02 04:36:30;;;;;;;29.30;9.00;;;;;;;;;;5065277;28;20052;-72
2024/02/02 04:38:57;;;;;;;27.95;8.32;;;;;;;;;;5081717;28;20071;-71
2024/02/02 04:41:24;;;;;;;24.92;8.50;;;;;;;;;;5057895;28;20048;-71
2024/02/02 04:43:51;;;;;;;22.58;7.38;;;;;;;;;;5072764;28;20056;-74
2024/02/02 04:46:17;;;;;;;22.60;7.93;;;;;;;;;;5061711;28;20427;-74
2024/02/02 04:48:44;;;;;;;24.85;7.40;;;;;;;;;;5078419;28;20788;-73
2024/02/02 04:51:10;;;;;;;25.40;8.23;;;;;;;;;;5074709;28;20061;-73
2024/02/02 04:53:37;;;;;;;16.08;6.70;;;;;;;;;;5060226;28;20052;-73
2024/02/02 04:56:03;;;;;;;17.02;7.15;;;;;;;;;;5072785;28;20044;-73
2024/02/02 04:58:30;;;;;;;21.08;7.18;;;;;;;;;;5060243;28;20074;-73
2024/02/02 05:00:56;;;;;;;23.15;7.75;;;;;;;;;;5059383;28;20536;-73
2024/02/02 05:03:23;;;;;;;28.17;7.65;;;;;;;;;;5067405;28;20044;-73
2024/02/02 05:05:50;;;;;;;18.30;7.45;;;;;;;;;;5085741;28;20040;-73
2024/02/02 05:08:16;;;;;;;26.50;7.47;;;;;;;;;;5080268;28;20071;-73
2024/02/02 05:10:43;;;;;;;21.70;7.07;;;;;;;;;;5054187;28;20059;-73
2024/02/02 05:13:10;;;;;;;21.60;6.95;;;;;;;;;;5085888;28;20195;-74
2024/02/02 05:15:36;;;;;;;21.83;7.20;;;;;;;;;;5061351;28;20173;-74
2024/02/02 05:18:06;;;;;;;19.67;6.85;;;;;;;;;;5082669;28;20099;-75
2024/02/02 05:20:33;;;;;;;17.33;6.65;;;;;;;;;;5048297;28;20519;-73
2024/02/02 05:22:59;;;;;;;23.85;6.75;;;;;;;;;;5055871;28;20049;-73
2024/02/02 05:25:26;;;;;;;19.23;7.30;;;;;;;;;;5075723;28;20135;-73
2024/02/02 05:27:53;;;;;;;18.70;7.55;;;;;;;;;;5069846;28;20472;-73
2024/02/02 05:30:20;;;;;;;26.40;6.15;;;;;;;;;;5093027;28;20055;-73
2024/02/02 05:32:46;;;;;;;20.02;6.65;;;;;;;;;;5065227;28;20043;-73
2024/02/02 05:35:13;;;;;;;21.17;6.38;;;;;;;;;;5086320;28;20051;-73
2024/02/02 05:37:39;;;;;;;20.92;6.82;;;;;;;;;;5084346;28;20070;-73
2024/02/02 05:40:07;;;;;;;17.08;5.90;;;;;;;;;;5074084;28;20129;-73
2024/02/02 05:42:34;;;;;;;18.33;6.95;;;;;;;;;;5089087;28;20074;-73
2024/02/02 05:45:00;;;;;;;32.10;7.30;;;;;;;;;;5086528;28;20043;-75
2024/02/02 05:47:27;;;;;;;20.70;6.15;;;;;;;;;;5085451;28;20394;-73
2024/02/02 05:49:54;;;;;;;20.10;6.88;;;;;;;;;;5078848;28;20044;-74
2024/02/02 05:52:20;;;;;;;27.85;7.40;;;;;;;;;;5083885;28;20051;-74
2024/02/02 05:54:47;;;;;;;22.98;6.47;;;;;;;;;;5088498;28;20052;-73
2024/02/02 05:57:13;;;;;;;22.98;5.60;;;;;;;;;;5076811;28;20049;-73
2024/02/02 05:59:40;;;;;;;20.48;5.75;;;;;;;;;;5070983;28;20036;-73
2024/02/02 06:02:06;;;;;;;19.05;6.75;;;;;;;;;;5082088;28;20056;-73
2024/02/02 06:04:33;;;;;;;20.52;5.90;;;;;;;;;;5085187;28;20101;-74
2024/02/02 06:06:59;;;;;;;22.17;6.82;;;;;;;;;;5084646;28;20139;-74
2024/02/02 06:09:26;;;;;;;19.27;6.18;;;;;;;;;;5084897;28;20504;-73
2024/02/02 06:11:52;;;;;;;17.33;5.72;;;;;;;;;;5088188;28;20113;-73
2024/02/02 06:14:19;;;;;;;15.77;5.88;;;;;;;;;;5079965;28;20040;-73
2024/02/02 06:16:47;;;;;;;21.35;5.60;;;;;;;;;;5067411;28;20037;-73
2024/02/02 06:19:13;;;;;;;19.93;5.87;;;;;;;;;;5064164;28;20546;-73
2024/02/02 06:21:39;;;;;;;27.75;6.38;;;;;;;;;;5085752;28;20463;-73
2024/02/02 06:24:07;;;;;;;22.92;5.40;;;;;;;;;;5078684;28;20385;-73
2024/02/02 06:26:36;;;;;;;17.75;5.00;;;;;;;;;;5076650;28;20071;-73
2024/02/02 06:29:05;;;;;;;23.85;6.35;;;;;;;;;;5096692;28;20060;-75
2024/02/02 06:31:31;;;;;;;22.13;5.20;;;;;;;;;;5078746;28;20044;-75
2024/02/02 06:33:58;;;;;;;16.70;5.25;;;;;;;;;;5066205;28;20134;-75
2024/02/02 06:36:26;;;;;;;20.13;5.88;;;;;;;;;;5061586;28;20461;-75
2024/02/02 06:38:54;;;;;;;21.83;6.07;;;;;;;;;;5081257;28;20404;-75
2024/02/02 06:41:21;;;;;;;16.25;4.80;;;;;;;;;;5064939;28;20041;-73
2024/02/02 06:43:47;;;;;;;19.52;5.10;;;;;;;;;;5082109;28;20729;-74
2024/02/02 06:46:14;;;;;;;17.08;4.80;;;;;;;;;;5086099;28;20044;-75
2024/02/02 06:48:42;;;;;;;20.30;5.28;;;;;;;;;;5074555;28;20044;-75
2024/02/02 06:51:09;;;;;;;20.45;4.75;;;;;;;;;;5088306;28;20050;-75
2024/02/02 06:53:36;;;;;;;16.80;4.85;;;;;;;;;;5086364;28;20135;-74
2024/02/02 06:56:07;;;;;;;22.05;5.18;;;;;;;;;;5093680;28;20052;-74
2024/02/02 06:58:41;;;;;;;19.58;5.50;;;;;;;;;;5080212;28;20045;-74
2024/02/02 07:01:10;;;;;;;21.85;5.30;;;;;;;;;;5081342;28;20051;-75
2024/02/02 07:03:37;;;;;;;18.48;5.03;;;;;;;;;;5069209;28;20047;-74
2024/02/02 07:06:05;;;;;;;21.58;5.35;;;;;;;;;;5075276;28;20049;-74
2024/02/02 07:08:32;;;;;;;16.25;5.05;;;;;;;;;;5083837;28;20051;-75
2024/02/02 07:11:11;;;;;;;21.65;4.75;;;;;;;;;;5080935;28;20044;-74
2024/02/02 07:13:37;;;;;;;;;;;;;;;;;;5092071;28;20649;-75
2024/02/02 07:16:04;;;;;;;17.27;5.75;;;;;;;;;;5068610;28;19924;-75
2024/02/02 07:18:30;;;;;;;24.17;5.30;;;;;;;;;;5088542;28;20062;-74
2024/02/02 07:21:02;;;;;;;21.27;5.80;;;;;;;;;;5084272;28;20126;-74
2024/02/02 07:23:33;;;;;;;24.08;5.57;;;;;;;;;;5072774;28;20083;-75
2024/02/02 07:26:00;;;;;;;26.92;6.53;;;;;;;;;;5066279;28;20151;-75
2024/02/02 07:28:34;;;;;;;27.67;5.55;;;;;;;;;;5088132;28;20043;-74
2024/02/02 07:31:01;;;;;;;18.92;5.50;;;;;;;;;;5074396;28;20109;-75
2024/02/02 07:33:28;;;;;;;23.45;5.00;;;;;;;;;;5075531;28;20054;-74
2024/02/02 07:35:59;;;;;;;17.92;5.07;;;;;;;;;;5043734;28;20045;-75
2024/02/02 07:38:25;;;;;;;22.63;5.32;;;;;;;;;;5075901;28;20257;-74
2024/02/02 07:40:53;;;;;;;20.50;5.60;;;;;;;;;;5069918;28;20059;-74
2024/02/02 07:43:20;;;;;;;21.27;5.70;;;;;;;;;;5071423;28;20052;-75
2024/02/02 07:45:46;;;;;;;17.52;5.45;;;;;;;;;;5059605;28;20457;-74
2024/02/02 07:48:12;;;;;;;26.40;7.35;;;;;;;;;;5062923;28;20056;-73
2024/02/02 07:50:39;;;;;;;17.15;5.68;;;;;;;;;;5077178;28;20047;-73
2024/02/02 07:53:05;;;;;;;17.92;5.88;;;;;;;;;;5063268;28;20050;-73
2024/02/02 07:55:32;;;;;;;17.60;6.18;;;;;;;;;;5050802;28;20052;-74
2024/02/02 07:57:58;;;;;;;23.98;7.53;;;;;;;;;;5062620;28;20086;-74
2024/02/02 08:00:29;;;;;;;26.05;7.70;;;;;;;;;;5075907;28;20105;-74
2024/02/02 08:02:55;;;;;;;20.92;7.32;;;;;;;;;;5072781;28;20048;-74
2024/02/02 08:05:22;;;;;;;27.63;7.68;;;;;;;;;;5057279;28;20048;-73
2024/02/02 08:07:48;;;;;;;27.05;7.43;;;;;;;;;;5073545;28;20104;-73
2024/02/02 08:10:15;;;;;;;22.50;7.30;;;;;;;;;;5075022;28;20562;-73
2024/02/02 08:12:41;;;;;;;24.98;9.38;;;;;;;;;;5072173;28;20147;-74
2024/02/02 08:15:08;;;;;;;26.00;9.25;;;;;;;;;;5077999;28;20052;-73
2024/02/02 08:17:34;;;;;;;24.08;8.65;;;;;;;;;;5063561;28;20047;-73
2024/02/02 08:20:01;;;;;;;28.65;9.93;;;;;;;;;;5063222;28;20044;-74
2024/02/02 08:22:27;;;;;;;21.77;9.35;;;;;;;;;;5058723;28;20409;-73
2024/02/02 08:24:54;;;;;;;23.05;9.05;;;;;;;;;;5076670;28;20416;-73
2024/02/02 08:27:21;;;;;;;24.85;9.85;;;;;;;;;;5069889;28;20044;-74
2024/02/02 08:29:48;;;;;;;21.13;8.17;;;;;;;;;;5087072;28;20078;-73
2024/02/02 08:32:15;;;;;;;31.85;9.52;;;;;;;;;;5059540;28;20059;-74
2024/02/02 08:34:42;;;;;;;30.25;9.43;;;;;;;;;;5068585;28;20121;-74
2024/02/02 08:37:08;;;;;;;24.58;9.10;;;;;;;;;;5083937;28;20610;-74
2024/02/02 08:39:35;;;;;;;34.72;9.93;;;;;;;;;;5086915;28;20416;-74
2024/02/02 08:42:06;;;;;;;29.98;8.80;;;;;;;;;;5067284;28;20047;-73
2024/02/02 08:44:33;;;;;;;24.45;8.75;;;;;;;;;;5083185;28;20054;-74
2024/02/02 08:47:00;;;;;;;27.48;8.52;;;;;;;;;;5079839;28;20048;-74
2024/02/02 08:49:45;;;;;;;26.98;8.75;;;;;;;;;;5072129;28;20136;-73
2024/02/02 08:52:12;;;;;;;29.02;8.55;;;;;;;;;;5076664;28;20048;-74
2024/02/02 08:54:45;;;;;;;30.23;8.68;;;;;;;;;;5086234;28;20562;-74
2024/02/02 08:57:29;;;;;;;22.45;7.72;;;;;;;;;;5062568;28;20102;-74
2024/02/02 08:59:56;;;;;;;26.35;8.43;;;;;;;;;;5085941;28;20052;-73
2024/02/02 09:02:49;;;;;;;23.17;7.90;;;;;;;;;;5076797;28;20548;-73
2024/02/02 09:05:23;;;;;;;20.23;8.30;;;;;;;;;;5065339;28;20047;-73
2024/02/02 09:08:01;;;;;;;25.33;8.43;;;;;;;;;;5085329;28;20221;-73
2024/02/02 09:10:31;;;;;;;20.30;7.68;;;;;;;;;;5086848;28;20135;-73
2024/02/02 09:13:00;;;;;;;26.00;8.68;;;;;;;;;;5086456;28;20055;-73
2024/02/02 09:15:27;;;;;;;23.50;8.05;;;;;;;;;;5074746;28;20052;-74
2024/02/02 09:17:54;;;;;;;23.92;8.40;;;;;;;;;;5089403;28;20047;-74
2024/02/02 09:20:41;;;;;;;28.20;10.02;;;;;;;;;;5076933;28;20491;-73
2024/02/02 09:23:07;;;;;;;30.67;9.15;;;;;;;;;;5086814;28;20457;-74
2024/02/02 09:25:38;;;;;;;31.77;9.48;;;;;;;;;;5082550;28;20056;-74
2024/02/02 09:28:06;;;;;;;29.08;10.27;;;;;;;;;;5090658;28;20095;-73
2024/02/02 09:30:33;;;;;;;32.95;10.38;;;;;;;;;;5080993;28;20048;-74
2024/02/02 09:32:59;;;;;;;28.33;10.10;;;;;;;;;;5073371;28;20050;-73
2024/02/02 09:35:45;;;;;;;35.58;9.73;;;;;;;;;;5067727;28;20094;-74
2024/02/02 09:38:12;;;;;;;30.60;9.52;;;;;;;;;;5085668;28;20484;-73
2024/02/02 09:41:07;;;;;;;30.17;10.05;;;;;;;;;;5096535;28;20044;-73
2024/02/02 09:44:03;;;;;;;31.50;9.75;;;;;;;;;;5065549;28;20132;-73
2024/02/02 09:46:36;;;;;;;30.40;9.65;;;;;;;;;;5075529;28;20377;-73
2024/02/02 09:49:23;;;;;;;28.08;9.75;;;;;;;;;;5083578;28;20102;-73
2024/02/02 09:51:53;;;;;;;29.63;10.23;;;;;;;;;;5069478;28;20927;-73
2024/02/02 09:54:25;;;;;;;35.05;11.02;;;;;;;;;;5067194;28;20098;-74
2024/02/02 09:56:59;;;;;;;26.73;9.70;;;;;;;;;;5069319;28;20043;-74
2024/02/02 09:59:26;;;;;;;34.05;10.68;;;;;;;;;;5085379;28;20457;-74
2024/02/02 10:02:03;;;;;;;26.48;9.30;;;;;;;;;;5081515;28;20048;-73
2024/02/02 10:04:48;;;;;;;24.85;9.07;;;;;;;;;;5089012;28;20147;-73
2024/02/02 10:07:41;;;;;;;29.25;11.10;;;;;;;;;;5067561;28;20055;-74
2024/02/02 10:10:10;;;;;;;30.42;10.40;;;;;;;;;;5046032;28;20978;-72
2024/02/02 10:12:56;;;;;;;34.75;12.55;;;;;;;;;;5050619;28;20044;-73
2024/02/02 10:15:31;;;;;;;33.05;11.30;;;;;;;;;;5077799;28;20123;-73
2024/02/02 10:18:18;;;;;;;28.98;11.80;;;;;;;;;;5053603;28;20124;-75
2024/02/02 10:20:47;;;;;;;34.35;11.63;;;;;;;;;;5076098;28;20048;-73
2024/02/02 10:23:23;;;;;;;30.52;11.48;;;;;;;;;;5087300;28;20480;-73
2024/02/02 10:25:53;;;;;;;26.58;11.25;;;;;;;;;;5060237;28;20059;-73
2024/02/02 10:28:19;;;;;;;32.95;11.30;;;;;;;;;;5098170;28;20048;-73
2024/02/02 10:30:56;;;;;;;28.65;10.70;;;;;;;;;;5074238;28;20055;-74
2024/02/02 10:33:22;;;;;;;25.23;10.70;;;;;;;;;;5087189;28;20139;-74
2024/02/02 10:36:03;;;;;;;32.70;11.65;;;;;;;;;;5082168;28;20044;-75
2024/02/02 10:38:40;;;;;;;30.80;11.80;;;;;;;;;;5083719;28;20127;-73
2024/02/02 10:41:09;;;;;;;30.80;11.70;;;;;;;;;;5074341;28;20077;-73
2024/02/02 10:43:56;;;;;;;26.08;10.48;;;;;;;;;;5064455;28;20051;-73
2024/02/02 10:46:35;;;;;;;25.10;11.30;;;;;;;;;;5059715;28;20052;-73
2024/02/02 10:49:02;;;;;;;;;;;;;;;;;;5070467;28;20109;-74
2024/02/02 10:51:31;;;;;;;30.52;11.15;;;;;;;;;;5077311;28;19978;-73
2024/02/02 10:54:10;;;;;;;34.67;11.80;;;;;;;;;;5066870;28;20524;-73
2024/02/02 10:56:43;;;;;;;32.50;11.00;;;;;;;;;;5075156;28;20048;-74
2024/02/02 10:59:15;;;;;;;35.88;11.68;;;;;;;;;;5074588;28;20093;-73
2024/02/02 11:01:42;;;;;;;27.73;11.57;;;;;;;;;;5085063;28;20052;-73
2024/02/02 11:04:23;;;;;;;29.98;11.57;;;;;;;;;;5081964;28;20052;-74
2024/02/02 11:06:55;;;;;;;33.70;11.55;;;;;;;;;;5085764;28;20047;-73
2024/02/02 11:09:36;;;;;;;24.10;10.65;;;;;;;;;;5077037;28;20051;-73
2024/02/02 11:12:10;;;;;;;25.98;10.93;;;;;;;;;;5070885;28;20436;-74
2024/02/02 11:14:41;;;;;;;22.52;12.02;;;;;;;;;;5078499;28;20060;-76
2024/02/02 11:17:20;;;;;;;28.10;12.13;;;;;;;;;;5065467;28;20519;-75
2024/02/02 11:19:50;;;;;;;23.27;11.50;;;;;;;;;;5085543;28;20503;-75
2024/02/02 11:22:19;;;;;;;27.33;12.00;;;;;;;;;;5077125;28;20055;-75
2024/02/02 11:24:54;;;;;;;30.30;12.73;;;;;;;;;;5079799;28;20112;-75
2024/02/02 11:27:27;;;;;;;30.08;12.13;;;;;;;;;;5083776;28;20264;-74
2024/02/02 11:29:56;;;;;;;25.83;12.07;;;;;;;;;;5088218;28;20048;-75
2024/02/02 11:32:23;;;;;;;29.73;12.43;;;;;;;;;;5081120;28;20051;-75
2024/02/02 11:34:53;;;;;;;34.13;12.88;;;;;;;;;;5076090;28;20507;-75
2024/02/02 11:37:23;;;;;;;33.15;13.05;;;;;;;;;;5090800;28;20048;-78
2024/02/02 11:40:01;;;;;;;30.25;12.25;;;;;;;;;;5072954;28;20040;-75
2024/02/02 11:42:28;;;;;;;;;;;;;;;;;;5080365;28;20552;-76
2024/02/02 11:44:56;;;;;;;27.20;12.10;;;;;;;;;;5080080;28;19926;-76
2024/02/02 11:47:23;;;;;;;30.42;12.77;;;;;;;;;;5063390;28;20716;-76
2024/02/02 11:49:58;;;;;;;30.02;12.38;;;;;;;;;;5064997;28;20068;-75
2024/02/02 11:52:30;;;;;;;35.05;13.35;;;;;;;;;;5075888;28;20046;-76
2024/02/02 11:55:07;;;;;;;32.33;13.10;;;;;;;;;;5084264;28;20135;-75
2024/02/02 11:57:38;;;;;;;27.53;11.83;;;;;;;;;;5063827;28;20051;-74
2024/02/02 12:00:06;;;;;;;24.80;12.15;;;;;;;;;;5079733;28;20277;-75
2024/02/02 12:02:57;;;;;;;25.30;12.33;;;;;;;;;;5094206;28;20138;-76
2024/02/02 12:05:26;;;;;;;26.45;11.85;;;;;;;;;;5075374;28;20276;-75
2024/02/02 12:08:01;;;;;;;25.85;12.20;;;;;;;;;;5072416;28;20053;-74
2024/02/02 12:10:28;;;;;;;22.85;12.13;;;;;;;;;;5074689;28;20075;-76
2024/02/02 12:12:59;;;;;;;26.30;11.10;;;;;;;;;;5064769;28;20506;-75
2024/02/02 12:15:26;;;;;;;31.15;11.43;;;;;;;;;;5067495;28;20052;-75
2024/02/02 12:17:53;;;;;;;28.23;11.75;;;;;;;;;;5065043;28;20055;-75
2024/02/02 12:20:21;;;;;;;30.55;11.98;;;;;;;;;;5081570;28;20048;-75
2024/02/02 12:22:49;;;;;;;29.45;10.70;;;;;;;;;;5052485;28;20070;-76
2024/02/02 12:25:18;;;;;;;32.67;13.00;;;;;;;;;;5085853;28;20052;-75
2024/02/02 12:27:45;;;;;;;29.90;11.25;;;;;;;;;;5064501;28;20449;-76
2024/02/02 12:30:13;;;;;;;30.90;12.45;;;;;;;;;;5068081;28;20048;-76
2024/02/02 12:32:39;;;;;;;22.75;10.27;;;;;;;;;;5056847;28;20390;-75
2024/02/02 12:35:06;;;;;;;33.85;12.52;;;;;;;;;;5073626;28;20052;-75
2024/02/02 12:37:44;;;;;;;25.02;11.43;;;;;;;;;;5067608;28;20040;-75
2024/02/02 12:40:10;;;;;;;30.20;13.23;;;;;;;;;;5076387;28;20083;-76
2024/02/02 12:42:37;;;;;;;34.95;14.10;;;;;;;;;;5058488;28;20044;-75
2024/02/02 12:45:03;;;;;;;28.25;11.50;;;;;;;;;;5080956;28;20052;-75
2024/02/02 12:47:30;;;;;;;29.80;13.73;;;;;;;;;;5061177;28;20048;-75
2024/02/02 12:49:56;;;;;;;30.60;11.70;;;;;;;;;;5075052;28;20051;-75
2024/02/02 12:52:23;;;;;;;26.40;12.45;;;;;;;;;;5068124;28;20044;-77
2024/02/02 12:54:51;;;;;;;29.15;12.23;;;;;;;;;;5077600;28;20052;-76
2024/02/02 12:57:17;;;;;;;37.67;14.02;;;;;;;;;;5066768;28;20048;-75
2024/02/02 12:59:44;;;;;;;34.83;13.23;;;;;;;;;;5084242;28;20048;-75
2024/02/02 13:02:13;;;;;;;35.05;14.25;;;;;;;;;;5074249;28;20592;-76
2024/02/02 13:04:40;;;;;;;34.88;14.63;;;;;;;;;;5073881;28;20678;-75
2024/02/02 13:07:06;;;;;;;33.45;13.77;;;;;;;;;;5069620;28;20049;-74
2024/02/02 13:09:34;;;;;;;38.80;13.50;;;;;;;;;;5069409;28;20058;-75
2024/02/02 13:12:01;;;;;;;35.80;14.52;;;;;;;;;;5073917;28;20048;-74
2024/02/02 13:14:34;;;;;;;37.15;14.30;;;;;;;;;;5047256;28;20056;-75
2024/02/02 13:17:04;;;;;;;31.42;13.23;;;;;;;;;;5058363;28;20048;-75
2024/02/02 13:19:32;;;;;;;32.38;14.15;;;;;;;;;;5080210;28;20527;-75
2024/02/02 13:22:02;;;;;;;34.58;13.18;;;;;;;;;;5076571;28;20559;-74
2024/02/02 13:24:29;;;;;;;33.15;14.88;;;;;;;;;;5076869;28;20155;-73
2024/02/02 13:27:05;;;;;;;34.67;14.57;;;;;;;;;;5058970;28;20044;-74
2024/02/02 13:29:35;;;;;;;38.38;14.52;;;;;;;;;;5089006;28;20556;-74
2024/02/02 13:32:04;;;;;;;38.00;15.70;;;;;;;;;;5066828;28;20087;-75
2024/02/02 13:34:30;;;;;;;30.65;15.07;;;;;;;;;;5082560;28;20040;-74
2024/02/02 13:37:01;;;;;;;29.90;14.70;;;;;;;;;;5057647;28;20048;-73
2024/02/02 13:39:28;;;;;;;40.70;16.20;;;;;;;;;;5061052;28;20063;-74
2024/02/02 13:41:59;;;;;;;38.90;15.45;;;;;;;;;;5064215;28;20048;-74
2024/02/02 13:44:26;;;;;;;36.20;15.20;;;;;;;;;;5076317;28;20134;-73
2024/02/02 13:46:55;;;;;;;44.15;16.50;;;;;;;;;;5074523;28;20052;-74
2024/02/02 13:49:22;;;;;;;44.45;17.98;;;;;;;;;;5075956;28;20048;-74
2024/02/02 13:51:49;;;;;;;36.22;15.80;;;;;;;;;;5067885;28;20059;-73
2024/02/02 13:54:16;;;;;;;37.92;15.02;;;;;;;;;;5079633;28;20044;-75
2024/02/02 13:56:44;;;;;;;34.40;15.52;;;;;;;;;;5080670;28;20472;-74
2024/02/02 13:59:17;;;;;;;32.63;14.32;;;;;;;;;;5055141;28;20048;-73
2024/02/02 14:01:45;;;;;;;35.45;15.63;;;;;;;;;;5081778;28;20139;-73
2024/02/02 14:04:12;;;;;;;39.38;15.85;;;;;;;;;;5076587;28;20773;-73
2024/02/02 14:06:38;;;;;;;43.83;15.75;;;;;;;;;;5079459;28;20044;-73
2024/02/02 14:09:08;;;;;;;32.65;15.23;;;;;;;;;;5084024;28;20048;-75
2024/02/02 14:11:35;;;;;;;;;;;;;;;;;;5081242;28;20455;-74
2024/02/02 14:14:03;;;;;;;35.38;16.02;;;;;;;;;;5058144;28;20064;-74
2024/02/02 14:16:31;;;;;;;34.08;16.73;;;;;;;;;;5084541;28;20131;-74
2024/02/02 14:19:02;;;;;;;32.63;16.70;;;;;;;;;;5082665;28;20102;-74
2024/02/02 14:21:30;;;;;;;40.97;16.73;;;;;;;;;;5080161;28;20391;-74
2024/02/02 14:23:57;;;;;;;;;;;;;;;;;;5065920;28;20048;-74
2024/02/02 14:26:24;;;;;;;40.20;17.65;;;;;;;;;;5083616;28;20340;-74
2024/02/02 14:28:57;;;;;;;45.05;17.40;;;;;;;;;;5092991;28;20047;-75
2024/02/02 14:31:25;;;;;;;33.50;16.55;;;;;;;;;;5081463;28;20056;-73
2024/02/02 14:33:52;;;;;;;40.80;17.15;;;;;;;;;;5085688;28;20059;-74
2024/02/02 14:36:19;;;;;;;26.83;14.57;;;;;;;;;;5080659;28;20052;-74